Time;durP1;ratioP1;P1;durP2;ratioP2;P2;SDS_P1;SDS_P2;PMS_P1;PMS_P2;Temp;Humidity;BMP_temperature;BMP_pressure;BME280_temperature;BME280_humidity;BME280_pressure;Samples;Min_cycle;Max_cycle;Signal;HPM_P1;HPM_P2
2022/12/26 00:02:14;;;;;;;36.45;14.07;;;8.50;99.90;;;;;;5113894;27;20046;-68
2022/12/26 00:04:39;;;;;;;29.05;12.68;;;8.50;99.90;;;;;;5132768;27;20125;-71
2022/12/26 00:07:05;;;;;;;31.45;13.43;;;8.40;99.90;;;;;;5097067;27;20114;-70
2022/12/26 00:09:32;;;;;;;28.60;12.60;;;8.40;99.90;;;;;;5114029;27;20115;-70
2022/12/26 00:11:58;;;;;;;29.13;12.60;;;8.50;99.90;;;;;;5131739;27;20084;-68
2022/12/26 00:14:23;;;;;;;31.50;12.35;;;8.50;99.90;;;;;;5114040;27;20043;-69
2022/12/26 00:16:49;;;;;;;30.92;12.38;;;8.40;99.90;;;;;;5113759;27;20054;-69
2022/12/26 00:19:15;;;;;;;42.25;14.85;;;8.50;99.90;;;;;;5132062;27;20829;-70
2022/12/26 00:21:41;;;;;;;28.48;12.50;;;8.40;99.90;;;;;;5113282;27;20440;-70
2022/12/26 00:24:08;;;;;;;37.50;14.18;;;8.50;99.90;;;;;;5113734;27;20100;-73
2022/12/26 00:26:35;;;;;;;35.92;13.82;;;8.40;99.90;;;;;;5131803;27;20047;-69
2022/12/26 00:29:01;;;;;;;52.00;18.08;;;8.60;99.90;;;;;;5113626;27;20051;-69
2022/12/26 00:31:29;;;;;;;47.95;15.88;;;8.50;99.90;;;;;;5131939;27;20076;-70
2022/12/26 00:33:55;;;;;;;41.83;16.15;;;8.50;99.90;;;;;;5130447;27;20062;-70
2022/12/26 00:36:24;;;;;;;45.08;15.38;;;8.50;99.90;;;;;;5096138;27;20055;-70
2022/12/26 00:38:50;;;;;;;35.38;13.18;;;8.50;99.90;;;;;;5131195;27;20054;-70
2022/12/26 00:41:18;;;;;;;31.67;14.10;;;8.50;99.90;;;;;;5131749;27;20076;-70
2022/12/26 00:43:43;;;;;;;35.55;14.73;;;8.50;99.90;;;;;;5113281;27;20078;-70
2022/12/26 00:46:10;;;;;;;33.10;13.07;;;8.50;99.90;;;;;;5113262;27;20486;-70
2022/12/26 00:48:36;;;;;;;28.70;12.50;;;8.50;99.90;;;;;;5113216;27;20050;-70
2022/12/26 00:51:02;;;;;;;34.08;13.15;;;8.50;99.90;;;;;;5130775;27;20055;-69
2022/12/26 00:53:28;;;;;;;44.38;14.77;;;8.50;99.90;;;;;;5096169;27;20148;-68
2022/12/26 00:55:54;;;;;;;36.80;14.80;;;8.50;99.90;;;;;;5131337;27;20050;-69
2022/12/26 00:58:20;;;;;;;29.95;13.10;;;8.70;99.90;;;;;;5096237;27;20055;-70
2022/12/26 01:00:46;;;;;;;32.17;12.90;;;8.50;99.90;;;;;;5113047;27;20050;-70
2022/12/26 01:03:13;;;;;;;38.45;14.23;;;8.50;99.90;;;;;;5130482;27;20062;-71
2022/12/26 01:05:43;;;;;;;26.13;12.45;;;8.50;99.90;;;;;;5130448;27;20126;-68
2022/12/26 01:08:09;;;;;;;49.95;14.68;;;8.50;99.90;;;;;;5131047;27;20507;-67
2022/12/26 01:10:35;;;;;;;24.48;10.70;;;8.50;99.90;;;;;;5112806;27;20134;-68
2022/12/26 01:13:01;;;;;;;31.25;11.32;;;8.50;99.90;;;;;;5112668;27;20499;-68
2022/12/26 01:15:27;;;;;;;41.92;13.32;;;8.50;99.90;;;;;;5112733;27;20464;-67
2022/12/26 01:17:53;;;;;;;29.10;12.48;;;8.60;99.90;;;;;;5095439;27;20081;-70
2022/12/26 01:20:18;;;;;;;30.52;12.48;;;8.50;99.90;;;;;;5092099;28;20035;-68
2022/12/26 01:22:44;;;;;;;29.40;11.13;;;8.50;99.90;;;;;;5092175;28;20663;-69
2022/12/26 01:25:11;;;;;;;23.13;10.65;;;8.50;99.90;;;;;;5110199;28;20047;-68
2022/12/26 01:27:36;;;;;;;21.95;9.77;;;8.50;99.90;;;;;;5110311;28;20060;-69
2022/12/26 01:30:03;;;;;;;23.08;10.85;;;8.50;99.90;;;;;;5109924;28;20073;-69
2022/12/26 01:32:28;;;;;;;24.25;11.20;;;8.50;99.90;;;;;;5122864;27;20493;-69
2022/12/26 01:34:55;;;;;;;23.45;9.77;;;8.50;99.90;;;;;;5112071;27;20051;-68
2022/12/26 01:37:22;;;;;;;25.50;11.57;;;8.50;99.90;;;;;;5130689;27;20047;-69
2022/12/26 01:39:48;;;;;;;23.40;9.90;;;8.50;99.90;;;;;;5112520;27;20043;-68
2022/12/26 01:42:16;;;;;;;19.25;9.57;;;8.50;99.90;;;;;;5095354;28;20375;-68
2022/12/26 01:44:59;;;;;;;29.60;12.18;;;8.50;99.90;;;;;;5111320;28;20058;-68
2022/12/26 01:47:37;;;;;;;23.33;11.70;;;8.40;99.90;;;;;;5112018;27;20051;-68
2022/12/26 01:50:05;;;;;;;34.20;13.77;;;8.40;99.90;;;;;;5130367;27;20075;-69
2022/12/26 01:52:37;;;;;;;35.45;12.73;;;8.40;99.90;;;;;;5111940;28;20055;-69
2022/12/26 01:55:06;;;;;;;21.50;11.10;;;8.50;99.90;;;;;;5112313;28;20055;-69
2022/12/26 01:57:41;;;;;;;22.40;10.45;;;8.40;99.90;;;;;;5130227;28;20099;-68
2022/12/26 02:00:07;;;;;;;22.85;10.82;;;8.50;99.90;;;;;;5095151;28;20047;-68
2022/12/26 02:05:32;;;;;;;25.83;10.27;;;8.50;99.90;;;;;;5130947;28;20700;-68
2022/12/26 02:05:34;;;;;;;23.35;11.10;;;8.50;99.90;;;;;;5133453;28;20043;-69
2022/12/26 02:08:12;;;;;;;33.95;11.95;;;8.50;99.90;;;;;;5115891;28;20039;-68
2022/12/26 02:11:09;;;;;;;22.45;9.93;;;8.50;99.90;;;;;;5115680;28;20043;-68
2022/12/26 02:13:37;;;;;;;24.55;11.05;;;8.50;99.90;;;;;;5111154;28;20047;-68
2022/12/26 02:16:04;;;;;;;28.25;11.85;;;8.50;99.90;;;;;;5115841;28;20043;-68
2022/12/26 02:18:30;;;;;;;22.90;10.57;;;8.50;99.90;;;;;;5082337;28;20055;-68
2022/12/26 02:21:13;;;;;;;22.48;10.65;;;8.50;99.90;;;;;;5133919;28;20061;-68
2022/12/26 02:24:00;;;;;;;;;;;8.60;99.90;;;;;;5116007;28;20047;-68
2022/12/26 02:26:53;;;;;;;22.83;11.10;;;8.50;99.90;;;;;;5115753;28;19919;-68
2022/12/26 02:29:37;;;;;;;25.33;12.18;;;8.40;99.90;;;;;;5115967;28;20413;-68
2022/12/26 02:32:24;;;;;;;29.88;16.10;;;8.50;99.90;;;;;;5134219;28;20083;-68
2022/12/26 02:34:56;;;;;;;38.17;16.83;;;8.50;99.90;;;;;;5134301;28;20134;-68
2022/12/26 02:37:47;;;;;;;43.33;19.10;;;8.40;99.90;;;;;;5115953;28;20461;-68
2022/12/26 02:40:48;;;;;;;36.85;16.83;;;8.50;99.90;;;;;;5115882;28;20090;-68
2022/12/26 02:43:35;;;;;;;35.03;15.93;;;8.50;99.90;;;;;;5050631;28;20052;-68
2022/12/26 03:13:09;;;;;;;28.27;15.65;;;8.40;99.90;;;;;;5115818;28;20108;-68
2022/12/26 03:15:26;;;;;;;29.17;15.23;;;8.50;99.90;;;;;;5118704;27;20047;-68
2022/12/26 03:17:57;;;;;;;33.67;17.02;;;8.50;99.90;;;;;;5101625;27;20104;-69
2022/12/26 03:20:27;;;;;;;28.45;16.35;;;8.50;99.90;;;;;;5137074;27;20083;-69
2022/12/26 03:23:06;;;;;;;29.05;16.00;;;8.50;99.90;;;;;;5118610;27;20043;-69
2022/12/26 03:28:23;;;;;;;20.63;11.98;;;8.50;99.90;;;;;;5113853;28;20395;-69
2022/12/26 03:30:49;;;;;;;23.98;10.63;;;8.50;99.90;;;;;;5115062;28;20040;-68
2022/12/26 03:36:02;;;;;;;22.25;11.13;;;8.50;99.90;;;;;;5114912;28;20134;-69
2022/12/26 03:39:06;;;;;;;23.63;12.75;;;8.40;99.90;;;;;;5115058;28;20043;-69
2022/12/26 04:20:07;;;;;;;30.40;16.83;;;8.60;99.90;;;;;;5111677;28;19927;-69
2022/12/26 04:46:14;;;;;;;53.70;28.35;;;8.60;99.90;;;;;;5099719;28;20058;-69
2022/12/26 04:51:28;;;;;;;55.40;28.15;;;8.70;99.90;;;;;;5113866;28;20105;-69
2022/12/26 04:53:54;;;;;;;47.45;25.40;;;8.70;99.90;;;;;;5113722;28;20043;-69
2022/12/26 04:56:19;;;;;;;45.85;22.45;;;8.80;99.90;;;;;;5114569;28;20045;-68
2022/12/26 04:58:45;;;;;;;34.65;18.00;;;8.60;99.90;;;;;;5114254;28;20043;-69
2022/12/26 05:09:36;;;;;;;25.02;14.27;;;8.70;99.90;;;;;;5119391;27;20133;-68
2022/12/26 05:12:08;;;;;;;23.85;13.30;;;8.70;99.90;;;;;;5116222;27;20046;-68
2022/12/26 05:14:37;;;;;;;27.00;14.25;;;8.90;99.90;;;;;;5135069;27;20061;-68
2022/12/26 05:30:58;;;;;;;27.60;14.60;;;8.80;99.90;;;;;;5116479;27;20051;-67
2022/12/26 05:36:09;;;;;;;29.20;16.75;;;8.70;99.90;;;;;;5134517;27;20058;-68
2022/12/26 05:38:36;;;;;;;30.15;17.95;;;8.70;99.90;;;;;;5116439;28;20452;-68
2022/12/26 05:41:02;;;;;;;31.13;17.55;;;8.70;99.90;;;;;;5116035;27;20483;-68
2022/12/26 05:43:28;;;;;;;38.28;19.85;;;8.70;99.90;;;;;;5116260;27;20043;-68
2022/12/26 05:45:53;;;;;;;24.88;14.77;;;8.80;99.90;;;;;;5099023;27;20047;-68
2022/12/26 05:48:19;;;;;;;31.10;17.52;;;8.90;99.90;;;;;;5116005;27;20448;-68
2022/12/26 05:50:45;;;;;;;30.73;17.67;;;8.70;99.90;;;;;;5098750;28;20039;-68
2022/12/26 05:53:10;;;;;;;29.90;16.85;;;8.70;99.90;;;;;;5116110;28;20058;-68
2022/12/26 05:55:36;;;;;;;30.95;17.20;;;8.70;99.90;;;;;;5115742;28;20042;-69
2022/12/26 05:58:02;;;;;;;27.77;16.08;;;8.70;99.90;;;;;;5116132;28;20047;-68
2022/12/26 06:00:29;;;;;;;22.42;14.63;;;8.70;99.90;;;;;;5134716;28;20096;-68
2022/12/26 06:02:54;;;;;;;25.55;16.23;;;8.90;99.90;;;;;;5098482;28;20055;-68
2022/12/26 06:05:21;;;;;;;20.55;12.80;;;8.70;99.90;;;;;;5115693;28;20074;-68
2022/12/26 06:07:47;;;;;;;22.83;13.40;;;8.60;99.90;;;;;;5115648;28;20537;-68
2022/12/26 06:10:13;;;;;;;22.20;13.43;;;8.60;99.90;;;;;;5133576;28;21930;-68
2022/12/26 06:12:38;;;;;;;21.92;13.15;;;8.60;99.90;;;;;;5134256;28;20043;-68
2022/12/26 06:15:05;;;;;;;23.30;13.57;;;8.60;99.90;;;;;;5099112;28;20455;-68
2022/12/26 06:17:30;;;;;;;20.75;12.23;;;8.60;99.90;;;;;;5134301;28;20043;-68
2022/12/26 06:19:56;;;;;;;20.95;12.55;;;8.60;99.90;;;;;;5115857;28;20051;-68
2022/12/26 06:22:22;;;;;;;19.25;12.13;;;8.60;99.90;;;;;;5115779;28;20043;-68
2022/12/26 06:24:47;;;;;;;19.48;11.95;;;8.60;99.90;;;;;;5081796;28;20082;-68
2022/12/26 06:27:13;;;;;;;20.05;11.70;;;8.60;99.90;;;;;;5099014;28;20130;-68
2022/12/26 06:29:39;;;;;;;20.50;11.95;;;8.60;99.90;;;;;;5115885;28;20059;-69
2022/12/26 06:32:05;;;;;;;18.67;11.73;;;8.60;99.90;;;;;;5098275;28;20036;-69
2022/12/26 06:34:31;;;;;;;18.55;11.23;;;8.60;99.90;;;;;;5137002;27;20039;-69
2022/12/26 06:36:56;;;;;;;18.10;11.32;;;8.60;99.90;;;;;;5137802;27;20078;-70
2022/12/26 06:39:23;;;;;;;21.90;14.13;;;8.60;99.90;;;;;;5119212;27;20122;-70
2022/12/26 06:41:49;;;;;;;25.92;15.60;;;8.60;99.90;;;;;;5137779;27;20451;-69
2022/12/26 06:44:15;;;;;;;21.58;13.77;;;8.70;99.90;;;;;;5120185;27;20122;-69
2022/12/26 06:46:41;;;;;;;25.80;15.52;;;8.60;99.90;;;;;;5119256;27;20177;-69
2022/12/26 06:49:07;;;;;;;26.60;15.35;;;8.60;99.90;;;;;;5102349;27;20486;-69
2022/12/26 06:51:34;;;;;;;30.90;17.50;;;8.60;99.90;;;;;;5119246;27;20058;-69
2022/12/26 06:54:03;;;;;;;24.52;14.88;;;8.60;99.90;;;;;;5102528;27;20478;-70
2022/12/26 06:56:30;;;;;;;26.52;15.25;;;8.60;99.90;;;;;;5085377;27;20086;-70
2022/12/26 06:58:59;;;;;;;23.15;13.13;;;8.60;99.90;;;;;;5102424;27;20057;-69
2022/12/26 07:01:26;;;;;;;18.95;11.43;;;8.60;99.90;;;;;;5137618;27;20043;-69
2022/12/26 07:03:53;;;;;;;20.02;11.63;;;8.70;99.90;;;;;;5085045;27;20047;-68
2022/12/26 07:06:26;;;;;;;20.08;11.23;;;8.60;99.90;;;;;;5102034;27;20467;-69
2022/12/26 07:08:55;;;;;;;20.30;12.00;;;8.60;99.90;;;;;;5118545;27;20519;-69
2022/12/26 07:11:23;;;;;;;22.52;12.25;;;8.40;99.90;;;;;;5137091;27;20052;-69
2022/12/26 07:13:49;;;;;;;21.27;12.50;;;8.60;99.90;;;;;;5119446;27;20096;-68
2022/12/26 07:16:15;;;;;;;26.35;15.32;;;8.70;99.90;;;;;;5084934;27;20069;-68
2022/12/26 07:18:41;;;;;;;24.92;14.25;;;8.90;99.90;;;;;;5137038;27;20125;-68
2022/12/26 07:21:09;;;;;;;26.05;15.02;;;8.70;99.90;;;;;;5136040;27;20043;-68
2022/12/26 07:23:34;;;;;;;27.27;15.55;;;8.70;99.90;;;;;;5135540;27;20051;-70
2022/12/26 07:26:00;;;;;;;27.13;14.48;;;8.70;99.90;;;;;;5080937;27;20548;-68
2022/12/26 07:28:27;;;;;;;26.65;14.23;;;8.70;99.90;;;;;;5100166;27;20051;-68
2022/12/26 07:30:52;;;;;;;21.10;13.30;;;8.60;99.90;;;;;;5082898;27;20103;-69
2022/12/26 07:33:19;;;;;;;29.42;17.42;;;8.70;99.90;;;;;;5116550;27;20038;-68
2022/12/26 07:35:44;;;;;;;31.20;18.85;;;8.70;99.90;;;;;;5116636;27;20550;-69
2022/12/26 07:38:11;;;;;;;33.60;19.73;;;8.70;99.90;;;;;;5100067;27;20035;-68
2022/12/26 07:40:36;;;;;;;29.98;18.00;;;8.80;99.90;;;;;;5116981;27;20130;-68
2022/12/26 07:43:02;;;;;;;28.88;15.50;;;8.70;99.90;;;;;;5082131;27;20139;-69
2022/12/26 07:45:28;;;;;;;20.38;11.70;;;8.70;99.90;;;;;;5094138;27;20105;-68
2022/12/26 07:47:54;;;;;;;21.10;12.15;;;8.80;99.90;;;;;;5116605;27;20050;-68
2022/12/26 07:50:21;;;;;;;15.15;9.32;;;8.80;99.90;;;;;;5134682;27;20047;-69
2022/12/26 07:52:47;;;;;;;17.50;9.73;;;8.80;99.90;;;;;;5112942;28;20055;-67
2022/12/26 07:55:13;;;;;;;18.33;12.10;;;9.00;99.90;;;;;;5113836;28;20575;-68
2022/12/26 07:57:39;;;;;;;21.75;13.68;;;8.80;99.90;;;;;;5079020;28;20066;-68
2022/12/26 08:00:06;;;;;;;20.92;12.70;;;8.80;99.90;;;;;;5113808;28;20051;-68
2022/12/26 08:02:31;;;;;;;19.35;13.07;;;8.80;99.90;;;;;;5114146;28;20040;-68
2022/12/26 08:04:57;;;;;;;20.63;12.35;;;8.80;99.90;;;;;;5113047;28;20123;-68
2022/12/26 08:07:23;;;;;;;23.88;14.07;;;8.90;99.90;;;;;;5113492;28;20071;-68
2022/12/26 08:09:49;;;;;;;15.98;11.15;;;8.80;99.90;;;;;;5096246;28;20525;-67
2022/12/26 08:12:15;;;;;;;13.05;9.23;;;8.80;99.90;;;;;;5095621;28;20119;-68
2022/12/26 08:14:41;;;;;;;15.18;8.68;;;8.90;99.90;;;;;;5112651;28;20043;-68
2022/12/26 08:17:07;;;;;;;16.63;9.15;;;8.90;99.90;;;;;;5113975;28;20051;-69
2022/12/26 08:19:33;;;;;;;19.25;10.60;;;8.80;99.90;;;;;;5113881;28;20052;-67
2022/12/26 08:21:59;;;;;;;22.23;11.65;;;8.90;99.90;;;;;;5113894;28;20031;-68
2022/12/26 08:24:24;;;;;;;16.00;10.75;;;9.10;99.90;;;;;;5113813;27;20405;-68
2022/12/26 08:26:50;;;;;;;16.08;9.38;;;9.00;99.90;;;;;;5112693;28;20044;-70
2022/12/26 08:29:16;;;;;;;19.40;11.60;;;9.70;99.90;;;;;;5115153;28;20043;-68
2022/12/26 08:31:41;;;;;;;17.67;11.70;;;8.90;99.90;;;;;;5113645;28;20068;-67
2022/12/26 08:34:07;;;;;;;14.32;8.43;;;8.90;99.90;;;;;;5111959;28;20479;-66
2022/12/26 08:36:33;;;;;;;13.10;8.60;;;8.90;99.90;;;;;;5113578;28;20043;-67
2022/12/26 08:38:58;;;;;;;14.82;8.68;;;8.90;99.90;;;;;;5095830;28;20043;-67
2022/12/26 08:41:24;;;;;;;14.00;9.95;;;8.90;99.90;;;;;;5112343;28;20044;-66
2022/12/26 08:43:51;;;;;;;15.82;10.35;;;8.90;99.90;;;;;;5113720;28;20078;-68
2022/12/26 08:46:19;;;;;;;20.38;13.55;;;8.90;99.90;;;;;;5093831;28;20450;-66
2022/12/26 08:48:45;;;;;;;23.38;14.65;;;8.90;99.90;;;;;;5106248;28;20126;-68
2022/12/26 08:51:17;;;;;;;20.35;12.93;;;8.90;99.90;;;;;;5119539;27;20098;-67
2022/12/26 08:53:44;;;;;;;23.17;13.45;;;8.90;99.90;;;;;;5116687;27;20051;-67
2022/12/26 08:56:14;;;;;;;18.95;13.15;;;8.90;99.90;;;;;;5115398;27;20082;-68
2022/12/26 08:58:40;;;;;;;20.75;13.40;;;8.90;99.90;;;;;;5114175;27;20126;-68
2022/12/26 09:01:09;;;;;;;23.30;13.93;;;8.90;99.90;;;;;;5098227;27;20047;-67
2022/12/26 09:03:35;;;;;;;16.80;11.40;;;8.90;99.90;;;;;;5133364;27;20152;-68
2022/12/26 09:06:02;;;;;;;16.60;10.73;;;8.70;99.90;;;;;;5116118;27;20488;-68
2022/12/26 09:08:33;;;;;;;15.15;9.85;;;9.00;99.90;;;;;;5113634;27;20051;-70
2022/12/26 09:11:04;;;;;;;17.45;10.07;;;8.90;99.90;;;;;;5095466;27;20068;-68
2022/12/26 09:13:30;;;;;;;14.55;8.57;;;9.00;99.90;;;;;;5116446;27;20039;-67
2022/12/26 09:16:05;;;;;;;14.93;10.05;;;9.00;99.90;;;;;;5131312;27;20077;-72
2022/12/26 09:18:31;;;;;;;11.18;8.20;;;9.00;99.90;;;;;;5116409;27;20047;-74
2022/12/26 09:21:01;;;;;;;13.75;8.73;;;9.00;99.90;;;;;;5116887;27;20390;-69
2022/12/26 09:23:28;;;;;;;18.48;12.20;;;9.00;99.90;;;;;;5118039;27;20121;-70
2022/12/26 09:25:54;;;;;;;16.92;10.65;;;9.00;99.90;;;;;;5134724;27;20043;-71
2022/12/26 09:28:20;;;;;;;20.05;11.75;;;9.00;99.90;;;;;;5134717;27;20386;-72
2022/12/26 09:30:45;;;;;;;14.80;9.60;;;9.00;99.90;;;;;;5116152;27;20046;-72
2022/12/26 09:33:11;;;;;;;10.35;7.40;;;9.00;99.90;;;;;;5099252;27;20043;-72
2022/12/26 09:35:40;;;;;;;12.73;6.40;;;9.00;99.90;;;;;;5116382;27;20039;-73
2022/12/26 09:38:06;;;;;;;13.30;8.38;;;9.00;99.90;;;;;;5082379;27;20490;-71
2022/12/26 09:40:55;;;;;;;13.73;8.77;;;9.10;99.90;;;;;;5099609;28;20047;-68
2022/12/26 09:43:45;;;;;;;20.50;13.07;;;9.10;99.90;;;;;;5135155;27;20054;-71
2022/12/26 09:46:21;;;;;;;18.35;12.15;;;9.10;99.90;;;;;;5116133;28;20051;-71
2022/12/26 09:49:07;;;;;;;17.15;11.57;;;9.10;99.90;;;;;;5116332;28;20047;-73
2022/12/26 09:51:35;;;;;;;15.68;7.25;;;9.00;99.90;;;;;;5134429;27;20435;-71
2022/12/26 09:54:04;;;;;;;7.07;3.30;;;8.90;99.90;;;;;;5099409;28;20051;-73
2022/12/26 09:56:35;;;;;;;7.90;3.80;;;9.00;99.90;;;;;;5116330;28;20101;-70
2022/12/26 09:59:10;;;;;;;4.80;2.67;;;9.10;99.90;;;;;;5099204;28;20090;-77
2022/12/26 10:01:36;;;;;;;6.60;3.33;;;9.10;99.90;;;;;;5134307;28;20118;-76
2022/12/26 10:04:08;;;;;;;5.15;2.33;;;9.10;99.90;;;;;;5133459;28;20465;-68
2022/12/26 10:06:42;;;;;;;4.90;1.90;;;9.00;99.90;;;;;;5117136;27;20079;-69
2022/12/26 10:09:42;;;;;;;6.20;2.53;;;9.20;99.90;;;;;;5138301;27;20077;-70
2022/12/26 10:12:33;;;;;;;5.22;1.70;;;9.10;99.90;;;;;;5118220;27;20092;-73
2022/12/26 10:15:11;;;;;;;6.57;2.15;;;9.10;99.90;;;;;;5136215;27;20394;-71
2022/12/26 10:17:54;;;;;;;5.18;2.03;;;9.20;99.90;;;;;;5117375;27;20103;-68
2022/12/26 10:20:51;;;;;;;6.47;2.10;;;9.10;99.90;;;;;;5117984;27;20046;-71
2022/12/26 10:23:58;;;;;;;4.88;1.60;;;9.10;99.90;;;;;;5117705;27;20066;-67
2022/12/26 10:26:45;;;;;;;9.68;1.20;;;9.00;99.90;;;;;;5086859;27;20139;-70
2022/12/26 10:29:23;;;;;;;6.85;1.13;;;8.80;99.90;;;;;;5119317;27;20047;-72
2022/12/26 10:31:57;;;;;;;3.42;0.80;;;8.80;99.90;;;;;;5137605;27;20088;-70
2022/12/26 10:34:27;;;;;;;7.10;0.82;;;8.60;99.90;;;;;;5118868;27;20070;-69
2022/12/26 10:37:14;;;;;;;7.47;1.10;;;8.50;99.90;;;;;;5116434;27;20100;-70
2022/12/26 10:40:13;;;;;;;10.50;1.00;;;8.40;99.90;;;;;;5135463;27;20509;-69
2022/12/26 10:42:44;;;;;;;4.82;1.10;;;8.20;99.90;;;;;;5137457;27;20043;-72
2022/12/26 10:45:17;;;;;;;8.15;1.27;;;8.20;99.90;;;;;;5137409;27;20494;-73
2022/12/26 10:47:48;;;;;;;6.78;0.82;;;8.00;99.90;;;;;;5101951;27;20051;-72
2022/12/26 10:50:17;;;;;;;4.65;0.60;;;8.00;99.90;;;;;;5134544;27;20039;-73
2022/12/26 10:52:44;;;;;;;3.67;1.08;;;7.90;99.90;;;;;;5101735;27;20055;-69
2022/12/26 10:55:15;;;;;;;4.75;1.13;;;7.90;99.90;;;;;;5118794;27;20047;-71
2022/12/26 10:57:42;;;;;;;5.93;0.70;;;7.90;99.90;;;;;;5118995;27;20050;-69
2022/12/26 11:00:14;;;;;;;6.50;0.90;;;7.80;99.90;;;;;;5118862;27;20076;-69
2022/12/26 11:02:40;;;;;;;6.72;1.23;;;7.90;99.90;;;;;;5135143;27;20505;-69
2022/12/26 11:05:10;;;;;;;4.97;0.85;;;7.80;99.90;;;;;;5101155;27;20043;-68
2022/12/26 11:07:58;;;;;;;6.13;0.77;;;7.80;99.90;;;;;;5116399;27;20039;-68
2022/12/26 11:10:28;;;;;;;4.47;0.60;;;7.80;99.90;;;;;;5075123;27;20101;-69
2022/12/26 11:12:55;;;;;;;2.10;0.52;;;7.80;99.90;;;;;;5118174;27;20123;-67
2022/12/26 11:15:33;;;;;;;5.10;0.60;;;7.70;99.90;;;;;;5136758;27;20100;-69
2022/12/26 11:18:22;;;;;;;4.55;0.82;;;7.80;99.90;;;;;;5115960;27;20461;-68
2022/12/26 11:20:49;;;;;;;5.07;0.77;;;7.70;99.90;;;;;;5117379;27;20066;-67
2022/12/26 11:23:21;;;;;;;3.92;0.60;;;7.70;99.90;;;;;;5115234;27;20047;-79
2022/12/26 11:25:53;;;;;;;3.85;0.60;;;7.50;99.90;;;;;;5118492;27;20043;-72
2022/12/26 11:28:28;;;;;;;7.05;0.50;;;7.40;99.90;;;;;;5116148;27;20035;-72
2022/12/26 11:30:54;;;;;;;3.67;0.50;;;7.30;99.90;;;;;;5117197;27;20042;-73
2022/12/26 11:33:27;;;;;;;5.45;0.50;;;7.30;99.90;;;;;;5091773;27;20039;-67
2022/12/26 11:36:16;;;;;;;2.10;0.50;;;7.20;99.90;;;;;;5118008;27;20387;-75
2022/12/26 11:38:50;;;;;;;4.32;0.93;;;7.10;99.90;;;;;;5105749;27;20062;-81
2022/12/26 11:41:31;;;;;;;4.05;0.60;;;7.10;99.90;;;;;;5134019;27;20065;-75
2022/12/26 11:44:04;;;;;;;4.70;1.15;;;6.90;99.90;;;;;;5133749;27;20074;-74
2022/12/26 11:46:38;;;;;;;1.42;0.45;;;6.90;99.90;;;;;;5101007;27;20047;-76
2022/12/26 11:49:05;;;;;;;3.47;0.65;;;7.00;99.90;;;;;;5116379;27;20104;-75
2022/12/26 11:51:39;;;;;;;5.40;0.63;;;7.10;99.90;;;;;;5116647;27;20058;-78
2022/12/26 11:54:25;;;;;;;4.13;0.57;;;7.10;99.90;;;;;;5135242;27;20114;-76
2022/12/26 11:57:02;;;;;;;4.65;0.55;;;7.00;99.90;;;;;;5116185;27;20062;-80
2022/12/26 11:59:28;;;;;;;4.05;0.52;;;6.90;99.90;;;;;;5135255;27;20429;-74
2022/12/26 12:02:18;;;;;;;4.47;0.50;;;6.90;99.90;;;;;;5100054;27;20126;-76
2022/12/26 12:04:45;;;;;;;3.80;1.10;;;7.00;99.90;;;;;;5114822;27;20042;-77
2022/12/26 12:07:31;;;;;;;4.45;1.00;;;7.00;99.90;;;;;;5112269;27;20043;-80
2022/12/26 12:10:06;;;;;;;2.05;0.45;;;6.90;99.90;;;;;;5095279;27;20057;-80
2022/12/26 12:12:45;;;;;;;1.92;0.50;;;7.20;99.90;;;;;;5099616;27;20039;-82
2022/12/26 12:15:39;;;;;;;5.05;0.60;;;7.10;99.90;;;;;;5099339;27;20035;-74
2022/12/26 12:18:26;;;;;;;5.00;0.70;;;6.90;99.90;;;;;;5091915;27;20549;-71
2022/12/26 12:21:04;;;;;;;7.20;0.88;;;6.80;99.90;;;;;;5113997;27;20039;-77
2022/12/26 12:24:00;;;;;;;7.68;0.70;;;6.90;99.90;;;;;;5131818;27;20031;-77
2022/12/26 12:26:34;;;;;;;5.40;0.65;;;6.90;99.90;;;;;;5113027;27;20047;-81
2022/12/26 12:29:44;;;;;;;3.63;0.60;;;6.90;99.90;;;;;;5126207;27;20054;-80
2022/12/26 12:32:28;;;;;;;5.10;0.60;;;6.90;99.90;;;;;;5049733;28;20048;-75
2022/12/26 12:35:11;;;;;;;4.38;0.80;;;6.90;99.90;;;;;;5111027;27;20051;-75
2022/12/26 12:37:48;;;;;;;8.63;0.90;;;7.00;99.90;;;;;;5104121;27;20047;-73
2022/12/26 12:40:36;;;;;;;3.20;0.55;;;6.90;99.90;;;;;;5135743;27;20047;-73
2022/12/26 12:43:25;;;;;;;3.58;0.70;;;7.20;99.90;;;;;;5100170;27;20047;-73
2022/12/26 12:46:03;;;;;;;7.97;1.02;;;7.00;99.90;;;;;;5058731;28;20052;-72
2022/12/26 12:48:49;;;;;;;4.00;0.57;;;7.00;99.90;;;;;;5115032;28;20545;-72
2022/12/26 12:51:33;;;;;;;5.28;0.80;;;6.90;99.90;;;;;;5096657;28;20081;-70
2022/12/26 12:54:23;;;;;;;5.22;1.00;;;6.60;99.90;;;;;;5096785;28;20410;-72
2022/12/26 12:57:07;;;;;;;5.88;0.80;;;6.90;99.90;;;;;;5096950;28;20051;-68
2022/12/26 12:59:48;;;;;;;5.15;0.80;;;7.00;99.90;;;;;;5115000;28;20380;-70
2022/12/26 13:02:37;;;;;;;5.50;0.95;;;6.90;99.90;;;;;;5079915;28;20100;-70
2022/12/26 13:05:26;;;;;;;11.85;1.50;;;7.00;99.90;;;;;;5114031;28;20050;-69
2022/12/26 13:07:58;;;;;;;7.15;0.95;;;7.00;99.90;;;;;;5079698;28;20134;-74
2022/12/26 13:10:31;;;;;;;5.57;0.88;;;7.10;99.90;;;;;;5125973;27;20172;-73
2022/12/26 13:13:07;;;;;;;7.40;1.17;;;7.00;99.90;;;;;;5099877;27;20380;-73
2022/12/26 13:15:44;;;;;;;6.65;0.90;;;7.10;99.90;;;;;;5115624;27;20153;-73
2022/12/26 13:18:19;;;;;;;8.38;1.25;;;7.00;99.90;;;;;;5134008;27;20093;-73
2022/12/26 13:21:03;;;;;;;5.82;0.70;;;6.90;99.90;;;;;;5116775;27;20047;-74
2022/12/26 13:26:44;;;;;;;9.35;0.70;;;6.90;99.90;;;;;;5116736;27;20130;-72
2022/12/26 13:29:24;;;;;;;8.07;0.98;;;7.00;99.90;;;;;;5134355;27;20043;-74
2022/12/26 13:31:50;;;;;;;9.18;1.42;;;6.90;99.90;;;;;;5114072;28;20043;-75
2022/12/26 13:34:18;;;;;;;8.52;0.95;;;6.90;99.90;;;;;;5113555;28;20126;-71
2022/12/26 13:36:51;;;;;;;8.55;1.00;;;6.90;99.90;;;;;;5095787;28;20075;-74
2022/12/26 13:39:25;;;;;;;7.80;0.90;;;7.00;99.90;;;;;;5096156;28;20109;-74
2022/12/26 13:44:53;;;;;;;8.05;0.90;;;6.90;99.90;;;;;;5108342;27;20471;-76
2022/12/26 13:47:36;;;;;;;10.32;1.52;;;7.00;99.90;;;;;;5133541;27;20102;-72
2022/12/26 13:50:39;;;;;;;11.25;1.20;;;6.90;99.90;;;;;;5099230;27;20563;-74
2022/12/26 13:53:24;;;;;;;4.95;0.73;;;6.80;99.90;;;;;;5112000;28;20100;-72
2022/12/26 13:56:03;;;;;;;6.60;1.10;;;6.70;99.90;;;;;;5112741;28;20043;-74
2022/12/26 13:58:43;;;;;;;4.00;1.00;;;6.80;99.90;;;;;;5113757;28;20051;-74
2022/12/26 14:01:11;;;;;;;4.80;0.85;;;6.90;99.90;;;;;;5112606;28;20043;-73
2022/12/26 14:04:03;;;;;;;8.15;1.00;;;6.90;99.90;;;;;;5112672;28;20081;-73
2022/12/26 14:06:51;;;;;;;6.03;0.80;;;6.80;99.90;;;;;;5082028;28;20059;-71
2022/12/26 14:09:38;;;;;;;9.80;1.15;;;6.80;99.90;;;;;;5095489;28;20056;-76
2022/12/26 14:12:25;;;;;;;6.82;1.20;;;6.80;99.90;;;;;;5112419;28;20049;-76
2022/12/26 14:15:07;;;;;;;9.63;1.02;;;6.80;99.90;;;;;;5112132;28;20551;-72
2022/12/26 14:18:09;;;;;;;5.53;0.90;;;6.80;99.90;;;;;;5113697;28;20044;-73
2022/12/26 14:20:47;;;;;;;4.47;0.85;;;6.90;99.90;;;;;;5095741;28;20069;-73
2022/12/26 14:23:34;;;;;;;6.05;0.90;;;6.80;99.90;;;;;;5113802;28;20491;-73
2022/12/26 14:26:33;;;;;;;5.65;1.00;;;6.70;99.90;;;;;;5112584;28;20096;-73
2022/12/26 14:29:31;;;;;;;7.70;1.10;;;6.70;99.90;;;;;;5112214;28;20499;-72
2022/12/26 14:32:19;;;;;;;5.65;0.68;;;6.60;99.90;;;;;;5095007;28;20056;-72
2022/12/26 14:34:58;;;;;;;7.60;1.00;;;6.60;99.90;;;;;;5112929;28;20423;-73
2022/12/26 14:37:47;;;;;;;5.85;0.90;;;6.60;99.90;;;;;;5112374;28;20058;-73
2022/12/26 14:40:27;;;;;;;6.05;0.80;;;6.50;99.90;;;;;;5112583;28;20403;-72
2022/12/26 14:43:12;;;;;;;9.65;1.67;;;6.50;99.90;;;;;;5112733;28;20083;-71
2022/12/26 14:45:46;;;;;;;7.10;0.90;;;6.50;99.90;;;;;;5110692;28;20051;-78
2022/12/26 14:48:14;;;;;;;6.72;1.02;;;6.40;99.90;;;;;;5112500;28;20486;-72
2022/12/26 14:50:45;;;;;;;5.93;1.10;;;6.60;99.90;;;;;;5113132;28;20371;-71
2022/12/26 14:53:28;;;;;;;5.45;0.73;;;6.30;99.90;;;;;;5111546;28;20055;-70
2022/12/26 14:56:02;;;;;;;;;;;6.30;99.90;;;;;;5115729;28;20051;-71
2022/12/26 14:58:31;;;;;;;6.85;0.93;;;6.20;99.90;;;;;;5099051;28;19920;-76
2022/12/26 15:01:22;;;;;;;5.32;0.80;;;6.20;99.90;;;;;;5098816;28;20051;-73
2022/12/26 15:04:10;;;;;;;8.95;0.88;;;6.10;99.90;;;;;;5116232;28;20126;-78
2022/12/26 15:07:07;;;;;;;8.15;1.10;;;6.10;99.90;;;;;;5115453;28;20479;-75
2022/12/26 15:09:38;;;;;;;9.48;1.25;;;6.10;99.90;;;;;;5115962;28;20046;-79
2022/12/26 15:12:34;;;;;;;9.52;1.17;;;6.00;99.90;;;;;;5098671;28;20039;-73
2022/12/26 15:15:26;;;;;;;7.80;1.08;;;6.00;99.90;;;;;;5115047;28;20143;-70
2022/12/26 15:18:30;;;;;;;5.32;1.08;;;5.90;99.90;;;;;;5116592;28;20044;-72
2022/12/26 15:21:24;;;;;;;9.57;1.17;;;5.90;99.90;;;;;;5094418;28;20050;-73
2022/12/26 15:24:23;;;;;;;10.75;1.15;;;5.90;99.90;;;;;;5116614;28;20403;-72
2022/12/26 15:27:10;;;;;;;10.73;1.52;;;5.90;99.90;;;;;;5113069;28;20047;-73